Time,TemperatureF,DewpointF,PressureIn,WindDirection,WindDirectionDegrees,WindSpeedMPH,WindSpeedGustMPH,Humidity,HourlyPrecipIn,Conditions,Clouds,dailyrainin,SoftwareType,DateUTC
2013-03-17 00:03:00,56.0,47.0,29.87,West,265,7.0,13.0,73,0.00,,,0.05,,2013-03-17 04:03:00,
2013-03-17 00:13:00,56.0,47.0,29.87,West,265,7.0,13.0,73,0.00,,,0.05,,2013-03-17 04:13:00,
2013-03-17 00:23:00,56.0,47.0,29.87,WSW,247,3.0,9.0,73,0.00,,,0.05,,2013-03-17 04:23:00,
2013-03-17 00:32:00,56.0,47.0,29.88,NNW,347,7.0,15.0,72,0.00,,,0.05,,2013-03-17 04:32:00,
2013-03-17 00:43:00,56.0,47.0,29.88,NNW,347,7.0,15.0,72,0.00,,,0.05,,2013-03-17 04:43:00,
2013-03-17 00:53:00,57.0,48.0,29.88,WNW,290,8.0,19.0,71,0.00,,,0.05,,2013-03-17 04:53:00,
2013-03-17 01:03:00,57.0,48.0,29.88,NNW,341,6.0,12.0,72,0.00,,,0.05,,2013-03-17 05:03:00,
2013-03-17 01:12:00,57.0,48.0,29.88,NNW,341,6.0,12.0,72,0.00,,,0.05,,2013-03-17 05:12:00,
2013-03-17 01:22:00,56.0,47.0,29.88,WNW,292,1.0,10.0,73,0.00,,,0.05,,2013-03-17 05:22:00,
2013-03-17 01:32:00,56.0,48.0,29.88,NNW,336,6.0,14.0,74,0.00,,,0.05,,2013-03-17 05:32:00,
2013-03-17 01:42:00,56.0,48.0,29.88,NNW,336,6.0,14.0,74,0.00,,,0.05,,2013-03-17 05:42:00,
2013-03-17 01:52:00,56.0,48.0,29.88,SW,219,5.0,11.0,74,0.00,,,0.05,,2013-03-17 05:52:00,
2013-03-17 02:02:00,56.0,48.0,29.87,WNW,291,1.0,13.0,74,0.00,,,0.05,,2013-03-17 06:02:00,
2013-03-17 02:12:00,56.0,48.0,29.87,WNW,291,1.0,13.0,74,0.00,,,0.05,,2013-03-17 06:12:00,
2013-03-17 02:22:00,56.0,48.0,29.88,WSW,246,1.0,12.0,74,0.00,,,0.05,,2013-03-17 06:22:00,
2013-03-17 02:32:00,56.0,48.0,29.88,West,281,0.0,6.0,74,0.00,,,0.05,,2013-03-17 06:32:00,
2013-03-17 02:42:00,56.0,48.0,29.88,West,281,0.0,6.0,74,0.00,,,0.05,,2013-03-17 06:42:00,
2013-03-17 02:52:00,56.0,48.0,29.88,West,261,1.0,8.0,74,0.00,,,0.05,,2013-03-17 06:52:00,
2013-03-17 03:02:00,56.0,48.0,29.88,WSW,257,0.0,0.0,74,0.00,,,0.05,,2013-03-17 07:02:00,
2013-03-17 03:12:00,56.0,48.0,29.88,WSW,257,0.0,0.0,74,0.00,,,0.05,,2013-03-17 07:12:00,
2013-03-17 03:22:00,56.0,49.0,29.89,WSW,257,0.0,0.0,76,0.00,,,0.05,,2013-03-17 07:22:00,
2013-03-17 03:32:00,56.0,48.0,29.89,SW,225,6.0,9.0,75,0.00,,,0.05,,2013-03-17 07:32:00,
2013-03-17 03:42:00,56.0,48.0,29.89,SW,225,6.0,9.0,75,0.00,,,0.05,,2013-03-17 07:42:00,
2013-03-17 03:52:00,56.0,48.0,29.88,WSW,241,4.0,7.0,75,0.00,,,0.05,,2013-03-17 07:52:00,
2013-03-17 04:03:00,55.0,48.0,29.89,WSW,240,2.0,9.0,76,0.00,,,0.05,,2013-03-17 08:03:00,
2013-03-17 04:13:00,55.0,48.0,29.88,WSW,244,1.0,6.0,77,0.00,,,0.05,,2013-03-17 08:13:00,
2013-03-17 04:22:00,55.0,48.0,29.88,WSW,244,1.0,6.0,77,0.00,,,0.05,,2013-03-17 08:22:00,
2013-03-17 04:32:00,55.0,48.0,29.88,SSW,198,0.0,6.0,76,0.00,,,0.05,,2013-03-17 08:32:00,
2013-03-17 04:42:00,55.0,48.0,29.88,SSW,198,0.0,6.0,76,0.00,,,0.05,,2013-03-17 08:42:00,
2013-03-17 04:52:00,55.0,48.0,29.88,SW,233,0.0,2.0,77,0.00,,,0.05,,2013-03-17 08:52:00,
2013-03-17 05:03:00,55.0,48.0,29.88,SSW,213,4.0,11.0,77,0.00,,,0.05,,2013-03-17 09:03:00,
2013-03-17 05:12:00,55.0,48.0,29.88,SSW,213,4.0,11.0,77,0.00,,,0.05,,2013-03-17 09:12:00,
2013-03-17 05:22:00,55.0,48.0,29.88,WSW,247,1.0,7.0,77,0.00,,,0.05,,2013-03-17 09:22:00,
2013-03-17 05:32:00,55.0,48.0,29.88,WSW,246,0.0,0.0,77,0.00,,,0.05,,2013-03-17 09:32:00,
2013-03-17 05:43:00,55.0,48.0,29.88,WSW,246,0.0,0.0,77,0.00,,,0.05,,2013-03-17 09:43:00,
2013-03-17 05:53:00,55.0,48.0,29.88,WSW,242,2.0,5.0,77,0.00,,,0.05,,2013-03-17 09:53:00,
2013-03-17 06:03:00,55.0,48.0,29.88,WSW,240,0.0,4.0,78,0.00,,,0.05,,2013-03-17 10:03:00,
2013-03-17 06:13:00,55.0,48.0,29.88,WSW,240,0.0,4.0,78,0.00,,,0.05,,2013-03-17 10:13:00,
2013-03-17 06:23:00,55.0,48.0,29.89,SSW,202,3.0,6.0,78,0.00,,,0.05,,2013-03-17 10:23:00,
2013-03-17 06:33:00,55.0,48.0,29.90,South,184,0.0,7.0,77,0.00,,,0.05,,2013-03-17 10:33:00,
2013-03-17 06:42:00,55.0,48.0,29.90,South,184,0.0,7.0,77,0.00,,,0.05,,2013-03-17 10:42:00,
2013-03-17 06:52:00,55.0,47.0,29.90,West,278,7.0,11.0,74,0.00,,,0.05,,2013-03-17 10:52:00,
2013-03-17 07:02:00,55.0,47.0,29.90,WSW,256,5.0,13.0,73,0.00,,,0.05,,2013-03-17 11:02:00,
2013-03-17 07:12:00,55.0,47.0,29.90,WSW,256,5.0,13.0,73,0.00,,,0.05,,2013-03-17 11:12:00,
2013-03-17 07:22:00,55.0,47.0,29.90,WSW,256,5.0,13.0,73,0.00,,,0.05,,2013-03-17 11:22:00,
2013-03-17 07:32:00,55.0,47.0,29.91,WNW,288,4.0,6.0,73,0.00,,,0.05,,2013-03-17 11:32:00,
2013-03-17 07:42:00,55.0,47.0,29.91,WNW,288,4.0,6.0,73,0.00,,,0.05,,2013-03-17 11:42:00,
2013-03-17 07:52:00,55.0,47.0,29.92,SW,234,0.0,5.0,73,0.00,,,0.05,,2013-03-17 11:52:00,
2013-03-17 08:02:00,55.0,47.0,29.92,West,271,2.0,7.0,73,0.00,,,0.05,,2013-03-17 12:02:00,
2013-03-17 08:12:00,55.0,47.0,29.92,West,271,2.0,7.0,73,0.00,,,0.05,,2013-03-17 12:12:00,
2013-03-17 08:22:00,55.0,46.0,29.92,SSW,195,3.0,10.0,72,0.00,,,0.05,,2013-03-17 12:22:00,
2013-03-17 08:33:00,55.0,46.0,29.92,WSW,252,1.0,4.0,72,0.00,,,0.05,,2013-03-17 12:33:00,
2013-03-17 08:43:00,55.0,46.0,29.92,WSW,252,1.0,4.0,72,0.00,,,0.05,,2013-03-17 12:43:00,
2013-03-17 08:52:00,55.0,46.0,29.93,South,191,4.0,8.0,72,0.00,,,0.05,,2013-03-17 12:52:00,
2013-03-17 09:02:00,55.0,46.0,29.93,WSW,238,3.0,8.0,72,0.00,,,0.05,,2013-03-17 13:02:00,
2013-03-17 09:12:00,55.0,46.0,29.93,WSW,238,3.0,8.0,72,0.00,,,0.05,,2013-03-17 13:12:00,
2013-03-17 09:22:00,55.0,46.0,29.93,WSW,244,0.0,4.0,72,0.00,,,0.05,,2013-03-17 13:22:00,
2013-03-17 09:32:00,55.0,46.0,29.94,West,263,6.0,10.0,71,0.00,,,0.05,,2013-03-17 13:32:00,
2013-03-17 09:42:00,55.0,46.0,29.94,West,263,6.0,10.0,71,0.00,,,0.05,,2013-03-17 13:42:00,
2013-03-17 09:52:00,56.0,47.0,29.94,WNW,290,1.0,4.0,72,0.00,,,0.05,,2013-03-17 13:52:00,
2013-03-17 10:02:00,56.0,47.0,29.94,West,259,0.0,2.0,71,0.00,,,0.05,,2013-03-17 14:02:00,
2013-03-17 10:12:00,56.0,47.0,29.94,West,259,0.0,2.0,71,0.00,,,0.05,,2013-03-17 14:12:00,
2013-03-17 10:22:00,56.0,47.0,29.95,West,259,0.0,0.0,71,0.00,,,0.05,,2013-03-17 14:22:00,
2013-03-17 10:32:00,56.0,46.0,29.95,WSW,239,0.0,4.0,70,0.00,,,0.05,,2013-03-17 14:32:00,
2013-03-17 10:42:00,56.0,46.0,29.95,WSW,239,0.0,4.0,70,0.00,,,0.05,,2013-03-17 14:42:00,
2013-03-17 10:53:00,56.0,47.0,29.96,WSW,244,0.0,7.0,71,0.00,,,0.05,,2013-03-17 14:53:00,
2013-03-17 11:02:00,56.0,47.0,29.96,WSW,250,1.0,9.0,71,0.00,,,0.05,,2013-03-17 15:02:00,
2013-03-17 11:12:00,56.0,47.0,29.96,WSW,250,1.0,9.0,71,0.00,,,0.05,,2013-03-17 15:12:00,
2013-03-17 11:23:00,56.0,47.0,29.96,WSW,248,2.0,9.0,71,0.00,,,0.05,,2013-03-17 15:23:00,
2013-03-17 11:33:00,57.0,48.0,29.95,West,280,4.0,7.0,71,0.00,,,0.05,,2013-03-17 15:33:00,
2013-03-17 11:43:00,57.0,48.0,29.95,West,280,4.0,7.0,71,0.00,,,0.05,,2013-03-17 15:43:00,
2013-03-17 11:53:00,59.0,48.0,29.95,WNW,300,10.0,17.0,66,0.00,,,0.05,,2013-03-17 15:53:00,
2013-03-17 12:03:00,60.0,48.0,29.95,WSW,240,5.0,12.0,64,0.00,,,0.05,,2013-03-17 16:03:00,
2013-03-17 12:12:00,60.0,48.0,29.95,WSW,240,5.0,12.0,64,0.00,,,0.05,,2013-03-17 16:12:00,
2013-03-17 12:23:00,60.0,49.0,29.95,WNW,292,4.0,9.0,66,0.00,,,0.05,,2013-03-17 16:23:00,
2013-03-17 12:33:00,61.0,48.0,29.95,West,272,4.0,11.0,63,0.00,,,0.05,,2013-03-17 16:33:00,
2013-03-17 12:43:00,61.0,48.0,29.95,West,272,4.0,11.0,63,0.00,,,0.05,,2013-03-17 16:43:00,
2013-03-17 12:52:00,60.0,48.0,29.94,WSW,246,4.0,8.0,64,0.00,,,0.05,,2013-03-17 16:52:00,
2013-03-17 13:02:00,58.0,49.0,29.95,ESE,107,3.0,14.0,72,0.00,,,0.05,,2013-03-17 17:02:00,
2013-03-17 13:12:00,58.0,49.0,29.95,ESE,107,3.0,14.0,72,0.00,,,0.05,,2013-03-17 17:12:00,
2013-03-17 13:22:00,55.0,48.0,29.94,East,101,3.0,8.0,78,0.00,,,0.05,,2013-03-17 17:22:00,
2013-03-17 13:33:00,56.0,50.0,29.94,ESE,106,5.0,10.0,79,0.00,,,0.05,,2013-03-17 17:33:00,
2013-03-17 13:42:00,56.0,50.0,29.94,ESE,106,5.0,10.0,79,0.00,,,0.05,,2013-03-17 17:42:00,
2013-03-17 13:53:00,57.0,50.0,29.93,East,90,1.0,10.0,76,0.00,,,0.05,,2013-03-17 17:53:00,
2013-03-17 14:02:00,56.0,49.0,29.93,East,101,1.0,9.0,77,0.00,,,0.05,,2013-03-17 18:02:00,
2013-03-17 14:12:00,56.0,49.0,29.93,East,101,1.0,9.0,77,0.00,,,0.05,,2013-03-17 18:12:00,
2013-03-17 14:22:00,56.0,50.0,29.93,SSE,157,0.0,11.0,79,0.00,,,0.05,,2013-03-17 18:22:00,
2013-03-17 14:32:00,55.0,49.0,29.93,ESE,105,2.0,11.0,79,0.00,,,0.05,,2013-03-17 18:32:00,
2013-03-17 14:42:00,55.0,49.0,29.93,ESE,105,2.0,11.0,79,0.00,,,0.05,,2013-03-17 18:42:00,
2013-03-17 14:52:00,54.0,49.0,29.92,ESE,118,1.0,7.0,82,0.00,,,0.05,,2013-03-17 18:52:00,
2013-03-17 15:02:00,53.0,48.0,29.92,ESE,110,2.0,7.0,82,0.00,,,0.05,,2013-03-17 19:02:00,
2013-03-17 15:12:00,53.0,48.0,29.92,ESE,110,2.0,7.0,82,0.00,,,0.05,,2013-03-17 19:12:00,
2013-03-17 15:22:00,52.0,47.0,29.91,ESE,118,1.0,9.0,84,0.00,,,0.05,,2013-03-17 19:22:00,
2013-03-17 15:33:00,52.0,48.0,29.91,SE,132,2.0,7.0,85,0.00,,,0.05,,2013-03-17 19:33:00,
2013-03-17 15:42:00,52.0,48.0,29.91,SE,132,2.0,7.0,85,0.00,,,0.05,,2013-03-17 19:42:00,
2013-03-17 15:53:00,52.0,47.0,29.91,ESE,113,2.0,8.0,84,0.00,,,0.05,,2013-03-17 19:53:00,
2013-03-17 16:02:00,51.0,46.0,29.92,ESE,105,4.0,10.0,84,0.00,,,0.05,,2013-03-17 20:02:00,
2013-03-17 16:12:00,51.0,46.0,29.92,ESE,105,4.0,10.0,84,0.00,,,0.05,,2013-03-17 20:12:00,
2013-03-17 16:22:00,50.0,46.0,29.92,SE,136,2.0,10.0,85,0.00,,,0.05,,2013-03-17 20:22:00,
2013-03-17 16:33:00,49.0,45.0,29.92,East,90,2.0,9.0,86,0.00,,,0.05,,2013-03-17 20:33:00,
2013-03-17 16:42:00,49.0,45.0,29.92,East,90,2.0,9.0,86,0.00,,,0.05,,2013-03-17 20:42:00,
2013-03-17 16:52:00,48.0,44.0,29.92,ESE,123,2.0,11.0,87,0.00,,,0.05,,2013-03-17 20:52:00,
2013-03-17 17:03:00,47.0,44.0,29.91,East,99,0.0,9.0,88,0.00,,,0.05,,2013-03-17 21:03:00,
2013-03-17 17:12:00,47.0,44.0,29.91,East,99,0.0,9.0,88,0.00,,,0.05,,2013-03-17 21:12:00,
2013-03-17 17:22:00,47.0,44.0,29.92,SE,139,0.0,4.0,89,0.00,,,0.05,,2013-03-17 21:22:00,
2013-03-17 17:33:00,47.0,44.0,29.92,ESE,117,0.0,2.0,89,0.00,,,0.05,,2013-03-17 21:33:00,
2013-03-17 17:43:00,47.0,44.0,29.92,ESE,117,0.0,2.0,89,0.00,,,0.05,,2013-03-17 21:43:00,
2013-03-17 17:52:00,46.0,43.0,29.93,ESE,106,0.0,5.0,89,0.00,,,0.05,,2013-03-17 21:52:00,
2013-03-17 18:03:00,46.0,43.0,29.93,ESE,123,0.0,4.0,90,0.00,,,0.05,,2013-03-17 22:03:00,
2013-03-17 18:13:00,46.0,43.0,29.93,ESE,105,0.0,2.0,90,0.00,,,0.05,,2013-03-17 22:13:00,
2013-03-17 18:23:00,46.0,43.0,29.93,ESE,105,0.0,2.0,90,0.00,,,0.05,,2013-03-17 22:23:00,
2013-03-17 18:33:00,46.0,43.0,29.93,ESE,105,0.0,2.0,90,0.00,,,0.05,,2013-03-17 22:33:00,
2013-03-17 18:42:00,46.0,43.0,29.93,ESE,105,0.0,2.0,90,0.00,,,0.05,,2013-03-17 22:42:00,
2013-03-17 18:53:00,46.0,43.0,29.93,ESE,111,0.0,4.0,90,0.00,,,0.05,,2013-03-17 22:53:00,
2013-03-17 19:03:00,46.0,43.0,29.93,ESE,114,0.0,0.0,90,0.00,,,0.05,,2013-03-17 23:03:00,
2013-03-17 19:12:00,46.0,43.0,29.93,ESE,114,0.0,0.0,90,0.00,,,0.05,,2013-03-17 23:12:00,
2013-03-17 19:22:00,46.0,43.0,29.93,SE,132,0.0,0.0,90,0.00,,,0.05,,2013-03-17 23:22:00,
2013-03-17 19:33:00,46.0,43.0,29.94,SE,132,0.0,3.0,90,0.00,,,0.04,,2013-03-17 23:33:00,
2013-03-17 19:42:00,46.0,43.0,29.94,SE,132,0.0,3.0,90,0.00,,,0.04,,2013-03-17 23:42:00,
2013-03-17 19:53:00,46.0,43.0,29.95,SE,130,2.0,4.0,90,0.00,,,0.04,,2013-03-17 23:53:00,
2013-03-17 20:03:00,45.0,42.0,29.95,ESE,115,0.0,5.0,90,0.00,,,0.04,,2013-03-18 00:03:00,
2013-03-17 20:12:00,45.0,42.0,29.95,ESE,115,0.0,5.0,90,0.00,,,0.04,,2013-03-18 00:12:00,
2013-03-17 20:22:00,45.0,43.0,29.96,East,95,1.0,6.0,91,0.00,,,0.00,,2013-03-18 00:22:00,
2013-03-17 20:33:00,44.0,42.0,29.96,ESE,113,1.0,4.0,91,0.00,,,0.00,,2013-03-18 00:33:00,
2013-03-17 20:42:00,44.0,42.0,29.96,ESE,113,1.0,4.0,91,0.00,,,0.00,,2013-03-18 00:42:00,
2013-03-17 20:53:00,43.0,41.0,29.97,ESE,111,0.0,2.0,91,0.00,,,0.00,,2013-03-18 00:53:00,
2013-03-17 21:02:00,42.0,40.0,29.98,East,86,2.0,6.0,92,0.00,,,0.00,,2013-03-18 01:02:00,
2013-03-17 21:12:00,42.0,40.0,29.98,East,86,2.0,6.0,92,0.00,,,0.00,,2013-03-18 01:12:00,
2013-03-17 21:22:00,41.0,39.0,29.99,East,100,1.0,7.0,92,0.00,,,0.00,,2013-03-18 01:22:00,
2013-03-17 21:32:00,40.0,38.0,30.00,SE,125,0.0,0.0,93,0.00,,,0.00,,2013-03-18 01:32:00,
2013-03-17 21:42:00,40.0,38.0,30.00,SE,125,0.0,0.0,93,0.00,,,0.00,,2013-03-18 01:42:00,
2013-03-17 21:52:00,40.0,38.0,30.00,SE,125,0.0,3.0,93,0.00,,,0.00,,2013-03-18 01:52:00,
2013-03-17 22:02:00,39.0,37.0,30.01,ESE,102,0.0,7.0,93,0.00,,,0.00,,2013-03-18 02:02:00,
2013-03-17 22:12:00,39.0,37.0,30.01,ESE,102,0.0,7.0,93,0.00,,,0.00,,2013-03-18 02:12:00,
2013-03-17 22:22:00,39.0,37.0,30.01,East,99,1.0,5.0,94,0.00,,,0.00,,2013-03-18 02:22:00,
2013-03-17 22:32:00,39.0,37.0,30.02,ESE,113,0.0,3.0,94,0.00,,,0.00,,2013-03-18 02:32:00,
2013-03-17 22:42:00,39.0,37.0,30.02,ESE,113,0.0,3.0,94,0.00,,,0.00,,2013-03-18 02:42:00,
2013-03-17 22:52:00,38.0,36.0,30.02,SE,132,0.0,0.0,94,0.00,,,0.00,,2013-03-18 02:52:00,
2013-03-17 23:03:00,38.0,36.0,30.03,SE,132,0.0,0.0,94,0.00,,,0.00,,2013-03-18 03:03:00,
2013-03-17 23:11:00,38.0,36.0,30.03,SE,132,0.0,0.0,94,0.00,,,0.00,,2013-03-18 03:11:00,
2013-03-17 23:22:00,37.0,35.0,30.03,SE,130,2.0,7.0,94,0.01,,,0.01,,2013-03-18 03:22:00,
2013-03-17 23:33:00,36.0,34.0,30.03,SSW,194,0.0,6.0,94,0.01,,,0.01,,2013-03-18 03:33:00,
2013-03-17 23:42:00,36.0,34.0,30.03,SSW,194,0.0,6.0,94,0.01,,,0.01,,2013-03-18 03:42:00,
2013-03-17 23:53:00,36.0,34.0,30.03,South,184,0.0,4.0,94,0.01,,,0.01,,2013-03-18 03:53:00,